Bagdad, Kentucky
Current Conditions -  °F | °C
As of 7:53 AM on Friday 28 Nov 2014 (Local Time) from KFFT Reporting Station
Overcast Overcast  
Wind Chill: 26°   Ceiling: 9000
Heat Index: 26°   Visibility: 10mi
Dew Point: 18°   Wind: 3mph
Humidity: 71%   Direction: 230°SW
Pressure: 30.41"   Gusts: NA
Location:  38.26°N, 85.06°W
Report Text: KFFT 281253Z AUTO 23003KT 10SM OVC090 M03/M08 A3041 RMK AO2 SLP306 T10331078
Loading
Personal Weather Stations






























Interactive Weather Map New forecast layout! Learn more

10-Day Weather Forecast

Advertisements
Track Severe Weather on mobile